Time;durP1;ratioP1;P1;durP2;ratioP2;P2;SDS_P1;SDS_P2;PMS_P1;PMS_P2;Temp;Humidity;BMP_temperature;BMP_pressure;BME280_temperature;BME280_humidity;BME280_pressure;Samples;Min_cycle;Max_cycle;Signal;HPM_P1;HPM_P2
2023/06/17 00:00:07;;;;;;;5.67;5.17;;;20.80;48.00;;;;;;5073562;28;20453;-55
2023/06/17 00:02:34;;;;;;;4.93;4.53;;;20.80;48.10;;;;;;5073494;28;20810;-55
2023/06/17 00:05:02;;;;;;;6.27;5.67;;;20.80;48.20;;;;;;5073634;28;20554;-55
2023/06/17 00:07:29;;;;;;;7.03;5.47;;;20.70;48.20;;;;;;5073170;28;20974;-56
2023/06/17 00:09:57;;;;;;;7.43;5.00;;;20.70;48.30;;;;;;5073353;28;20460;-56
2023/06/17 00:12:24;;;;;;;7.97;4.83;;;20.60;48.30;;;;;;5073403;28;20456;-56
2023/06/17 00:14:53;;;;;;;5.57;5.07;;;20.60;48.50;;;;;;5073171;28;20570;-56
2023/06/17 00:17:21;;;;;;;5.63;5.10;;;20.50;48.50;;;;;;5072907;28;20536;-56
2023/06/17 00:19:48;;;;;;;6.80;4.90;;;20.50;48.50;;;;;;5073171;28;20449;-56
2023/06/17 00:22:14;;;;;;;5.90;5.40;;;20.50;48.60;;;;;;5073308;28;20506;-56
2023/06/17 00:24:41;;;;;;;6.43;5.47;;;20.40;48.70;;;;;;5073183;28;20485;-56
2023/06/17 00:27:09;;;;;;;5.30;4.90;;;20.40;48.90;;;;;;5073201;28;20468;-56
2023/06/17 00:29:36;;;;;;;4.93;4.53;;;20.40;49.00;;;;;;5073267;28;20463;-56
2023/06/17 00:32:03;;;;;;;6.70;4.60;;;20.30;49.10;;;;;;5073238;28;20448;-56
2023/06/17 00:34:30;;;;;;;7.77;4.70;;;20.20;49.20;;;;;;5073195;28;20452;-56
2023/06/17 00:36:56;;;;;;;6.33;5.43;;;20.20;49.30;;;;;;5073034;28;20517;-56
2023/06/17 00:39:23;;;;;;;5.23;4.60;;;20.10;49.50;;;;;;5072809;28;20965;-56
2023/06/17 00:41:50;;;;;;;5.07;4.60;;;20.10;49.70;;;;;;5072813;28;20965;-56
2023/06/17 00:44:18;;;;;;;5.40;4.90;;;20.10;49.90;;;;;;5073058;28;20457;-56
2023/06/17 00:46:50;;;;;;;5.70;5.20;;;20.00;49.90;;;;;;5072985;28;20465;-56
2023/06/17 00:49:18;;;;;;;6.20;5.57;;;20.00;50.10;;;;;;5073451;28;20506;-56
2023/06/17 00:51:45;;;;;;;5.27;4.80;;;20.00;50.30;;;;;;5072896;28;20448;-56
2023/06/17 00:54:13;;;;;;;5.27;4.87;;;19.90;50.40;;;;;;5074413;28;20836;-56
2023/06/17 00:56:42;;;;;;;5.37;4.57;;;19.90;50.50;;;;;;5076574;28;20810;-56
2023/06/17 00:59:09;;;;;;;8.53;4.57;;;19.80;50.60;;;;;;5076853;28;20525;-56
2023/06/17 01:01:37;;;;;;;5.40;4.90;;;19.70;50.70;;;;;;5076897;28;20441;-55
2023/06/17 01:04:06;;;;;;;6.83;5.07;;;19.60;50.80;;;;;;5076779;28;20452;-56
2023/06/17 01:06:41;;;;;;;5.73;5.07;;;19.60;51.00;;;;;;5076563;28;20515;-56
2023/06/17 01:09:12;;;;;;;5.53;5.13;;;19.50;51.10;;;;;;5076753;28;20440;-55
2023/06/17 01:11:41;;;;;;;6.53;5.60;;;19.50;51.20;;;;;;5076666;28;20431;-55
2023/06/17 01:14:11;;;;;;;5.60;5.10;;;19.40;51.20;;;;;;5077953;28;20494;-56
2023/06/17 01:16:41;;;;;;;6.73;6.13;;;19.40;51.20;;;;;;5077887;28;20545;-56
2023/06/17 01:19:18;;;;;;;5.83;5.30;;;19.30;51.30;;;;;;5078175;28;20467;-56
2023/06/17 01:21:48;;;;;;;5.60;5.07;;;19.30;51.70;;;;;;5076041;28;20794;-56
2023/06/17 01:24:25;;;;;;;6.20;5.70;;;19.20;51.60;;;;;;5076419;28;20440;-56
2023/06/17 01:26:55;;;;;;;7.63;5.53;;;19.10;51.90;;;;;;5076181;28;20597;-56
2023/06/17 01:29:23;;;;;;;5.60;4.93;;;19.10;52.10;;;;;;5076266;28;20437;-56
2023/06/17 01:31:50;;;;;;;6.07;5.00;;;19.00;52.30;;;;;;5076213;28;20455;-56
2023/06/17 01:34:22;;;;;;;5.57;5.17;;;19.00;52.40;;;;;;5075902;28;20967;-56
2023/06/17 01:36:54;;;;;;;7.87;5.20;;;19.00;52.60;;;;;;5075239;28;21011;-56
2023/06/17 01:39:26;;;;;;;6.03;5.23;;;19.00;52.50;;;;;;5076155;28;20437;-56
2023/06/17 01:41:55;;;;;;;6.27;5.57;;;19.00;52.60;;;;;;5076076;28;20520;-56
2023/06/17 01:44:24;;;;;;;8.20;5.60;;;18.90;52.70;;;;;;5076020;28;20522;-55
2023/06/17 01:46:51;;;;;;;5.60;5.10;;;18.90;52.90;;;;;;5075811;28;20495;-56
2023/06/17 01:49:18;;;;;;;5.57;5.07;;;18.80;52.90;;;;;;5075973;28;20448;-56
2023/06/17 01:52:04;;;;;;;6.10;5.60;;;18.80;53.10;;;;;;5074847;28;20977;-56
2023/06/17 01:54:32;;;;;;;5.70;5.10;;;18.80;53.10;;;;;;5073868;28;20859;-56
2023/06/17 01:57:00;;;;;;;5.50;4.87;;;18.80;53.30;;;;;;5078667;28;20472;-56
2023/06/17 01:59:27;;;;;;;6.43;5.83;;;18.70;53.30;;;;;;5094717;28;20957;-56
2023/06/17 02:01:54;;;;;;;7.03;6.30;;;18.70;53.30;;;;;;5082371;28;20460;-56
2023/06/17 02:04:20;;;;;;;5.93;5.40;;;18.70;53.50;;;;;;5075647;28;20825;-56
2023/06/17 02:06:47;;;;;;;7.50;6.37;;;18.70;53.50;;;;;;5074927;28;20601;-56
2023/06/17 02:09:14;;;;;;;9.20;5.63;;;18.60;53.50;;;;;;5084804;28;20456;-56
2023/06/17 02:11:42;;;;;;;6.50;5.90;;;18.60;53.70;;;;;;5087616;28;20549;-56
2023/06/17 02:14:09;;;;;;;7.80;6.10;;;18.60;53.80;;;;;;5084110;28;20459;-56
2023/06/17 02:19:06;;;;;;;6.77;6.00;;;18.60;53.80;;;;;;5096793;28;20459;-71
2023/06/17 02:21:33;;;;;;;6.17;5.57;;;18.60;53.80;;;;;;5097481;28;20479;-71
2023/06/17 02:24:00;;;;;;;7.20;5.67;;;18.50;53.80;;;;;;5115107;28;20446;-71
2023/06/17 02:26:26;;;;;;;5.60;5.20;;;18.50;54.10;;;;;;5116396;28;20438;-71
2023/06/17 02:28:56;;;;;;;5.40;4.90;;;18.50;54.30;;;;;;5114883;28;20525;-71
2023/06/17 02:31:26;;;;;;;9.83;6.07;;;18.50;54.50;;;;;;5115036;28;20943;-71
2023/06/17 02:33:53;;;;;;;6.10;5.60;;;18.50;54.60;;;;;;5114953;28;20550;-71
2023/06/17 02:36:19;;;;;;;7.00;6.40;;;18.50;54.70;;;;;;5111883;28;20494;-71
2023/06/17 02:38:46;;;;;;;7.77;6.03;;;18.40;54.60;;;;;;5104255;28;20458;-71
2023/06/17 02:41:13;;;;;;;6.07;5.47;;;18.40;54.80;;;;;;5097395;28;20459;-71
2023/06/17 02:43:40;;;;;;;6.50;5.90;;;18.40;54.90;;;;;;5096509;28;20463;-70
2023/06/17 02:46:09;;;;;;;6.07;5.47;;;18.40;54.90;;;;;;5096516;28;20936;-68
2023/06/17 02:48:36;;;;;;;6.70;5.60;;;18.30;54.90;;;;;;5097055;28;20483;-69
2023/06/17 02:51:04;;;;;;;5.97;5.47;;;18.30;54.80;;;;;;5097298;28;20498;-71
2023/06/17 02:53:32;;;;;;;6.10;5.50;;;18.20;54.80;;;;;;5095342;28;20559;-70
2023/06/17 02:55:59;;;;;;;5.57;5.07;;;18.20;54.70;;;;;;5100411;28;20490;-71
2023/06/17 02:58:26;;;;;;;6.90;6.20;;;18.10;54.80;;;;;;5104438;28;20452;-70
2023/06/17 03:00:54;;;;;;;5.90;5.20;;;18.10;54.80;;;;;;5116328;28;20451;-70
2023/06/17 03:03:34;;;;;;;5.60;5.10;;;18.10;54.90;;;;;;5116441;28;20520;-70
2023/06/17 03:06:03;;;;;;;6.10;4.90;;;18.00;55.20;;;;;;5117328;28;20427;-70
2023/06/17 03:08:31;;;;;;;6.20;5.57;;;18.00;55.50;;;;;;5116543;28;20455;-71
2023/06/17 03:10:58;;;;;;;6.10;5.50;;;18.00;55.70;;;;;;5116500;28;20447;-70
2023/06/17 03:13:25;;;;;;;5.97;5.40;;;17.90;55.70;;;;;;5116252;28;20466;-71
2023/06/17 03:15:53;;;;;;;6.67;5.80;;;18.00;56.20;;;;;;5116249;28;20478;-70
2023/06/17 03:18:20;;;;;;;7.60;5.40;;;17.90;56.10;;;;;;5115174;28;20978;-70
2023/06/17 03:20:50;;;;;;;11.03;5.57;;;18.00;56.20;;;;;;5115957;28;21042;-70
2023/06/17 03:23:17;;;;;;;5.60;5.10;;;17.90;56.30;;;;;;5116787;28;20467;-70
2023/06/17 03:25:45;;;;;;;6.20;5.60;;;18.00;56.50;;;;;;5116246;27;20475;-71
2023/06/17 03:28:13;;;;;;;6.93;5.30;;;18.00;56.40;;;;;;5116595;28;20479;-70
2023/06/17 03:30:43;;;;;;;6.50;5.70;;;18.00;56.50;;;;;;5115803;27;20809;-70
2023/06/17 03:33:10;;;;;;;8.10;6.13;;;18.00;56.40;;;;;;5116031;28;20469;-70
2023/06/17 03:35:38;;;;;;;10.50;6.00;;;18.00;57.20;;;;;;5114939;28;20483;-70
2023/06/17 03:38:07;;;;;;;10.10;6.33;;;18.00;56.40;;;;;;5115582;28;20450;-70
2023/06/17 03:40:34;;;;;;;7.00;5.83;;;18.00;56.40;;;;;;5115839;28;20947;-70
2023/06/17 03:43:01;;;;;;;9.47;5.80;;;18.00;56.60;;;;;;5114887;28;20470;-70
2023/06/17 03:45:30;;;;;;;6.10;5.50;;;17.90;56.50;;;;;;5115707;28;20449;-70
2023/06/17 03:47:58;;;;;;;8.73;5.27;;;17.90;56.50;;;;;;5115812;27;20453;-70
2023/06/17 03:50:28;;;;;;;7.40;5.60;;;17.80;56.60;;;;;;5115353;28;20447;-70
2023/06/17 03:52:55;;;;;;;10.10;5.70;;;17.70;56.50;;;;;;5115189;28;20471;-70
2023/06/17 03:55:24;;;;;;;5.70;5.20;;;17.70;56.50;;;;;;5115720;28;20447;-70
2023/06/17 03:57:53;;;;;;;7.10;5.33;;;17.60;56.60;;;;;;5115639;28;20446;-70
2023/06/17 04:00:20;;;;;;;6.20;5.63;;;17.60;56.70;;;;;;5114378;28;20457;-70
2023/06/17 04:02:48;;;;;;;6.80;5.60;;;17.60;56.70;;;;;;5114467;28;20501;-70
2023/06/17 04:05:15;;;;;;;6.73;6.10;;;17.60;56.80;;;;;;5114243;28;20503;-70
2023/06/17 04:07:42;;;;;;;5.93;5.33;;;17.60;56.90;;;;;;5115934;28;20439;-70
2023/06/17 04:10:10;;;;;;;6.73;6.20;;;17.60;57.00;;;;;;5115015;28;20451;-70
2023/06/17 04:12:42;;;;;;;6.90;6.30;;;17.60;57.00;;;;;;5116244;28;20488;-70
2023/06/17 04:15:10;;;;;;;8.83;7.00;;;17.60;57.30;;;;;;5115468;28;20465;-70
2023/06/17 04:17:37;;;;;;;9.50;6.57;;;17.60;57.40;;;;;;5101089;28;20487;-70
2023/06/17 04:20:12;;;;;;;9.03;8.00;;;17.70;57.60;;;;;;5084689;28;20447;-70
2023/06/17 04:22:39;;;;;;;8.87;7.80;;;17.60;57.60;;;;;;5098930;28;20467;-70
2023/06/17 04:25:08;;;;;;;7.00;6.40;;;17.60;57.90;;;;;;5097905;28;20456;-70
2023/06/17 04:27:36;;;;;;;9.03;6.17;;;17.70;57.90;;;;;;5095651;28;20444;-70
2023/06/17 04:30:07;;;;;;;7.37;6.77;;;17.60;58.20;;;;;;5095921;28;20448;-70
2023/06/17 04:32:38;;;;;;;7.40;6.80;;;17.50;58.20;;;;;;5095681;28;20976;-70
2023/06/17 04:35:06;;;;;;;7.70;6.97;;;17.60;58.10;;;;;;5095277;28;20428;-70
2023/06/17 04:37:40;;;;;;;8.50;7.07;;;17.60;58.30;;;;;;5100342;28;20486;-71
2023/06/17 04:40:11;;;;;;;7.03;6.30;;;17.50;58.30;;;;;;5106412;28;20781;-71
2023/06/17 04:42:40;;;;;;;10.13;6.73;;;17.50;58.50;;;;;;5096668;28;20572;-70
2023/06/17 04:45:09;;;;;;;8.33;7.50;;;17.60;58.70;;;;;;5093743;28;20982;-70
2023/06/17 04:47:37;;;;;;;8.40;7.53;;;17.60;59.00;;;;;;5093726;28;20444;-70
2023/06/17 04:50:05;;;;;;;9.00;7.30;;;17.70;59.10;;;;;;5093923;28;20513;-71
2023/06/17 04:52:32;;;;;;;8.83;7.37;;;17.70;59.20;;;;;;5093646;28;20476;-70
2023/06/17 04:55:00;;;;;;;8.60;7.90;;;17.80;59.60;;;;;;5095579;28;20936;-69
2023/06/17 04:57:27;;;;;;;8.90;7.97;;;17.80;59.80;;;;;;5098939;28;20507;-70
2023/06/17 04:59:55;;;;;;;8.90;7.80;;;17.80;59.70;;;;;;5097127;28;20447;-70
2023/06/17 05:02:23;;;;;;;13.20;8.37;;;17.90;59.90;;;;;;5096617;28;20497;-70
2023/06/17 05:04:50;;;;;;;9.33;8.10;;;17.90;60.90;;;;;;5094695;28;20444;-70
2023/06/17 05:07:19;;;;;;;8.37;7.10;;;18.00;61.20;;;;;;5093627;28;20440;-70
2023/06/17 05:09:45;;;;;;;10.13;8.00;;;18.10;61.30;;;;;;5095945;28;20538;-70
2023/06/17 05:12:15;;;;;;;8.83;8.03;;;18.20;60.80;;;;;;5095378;28;20476;-70
2023/06/17 05:14:42;;;;;;;8.13;7.43;;;18.20;61.20;;;;;;5108956;28;20546;-70
2023/06/17 05:17:09;;;;;;;8.77;7.90;;;18.30;61.10;;;;;;5094773;28;20487;-70
2023/06/17 05:19:37;;;;;;;9.33;7.73;;;18.40;61.60;;;;;;5094573;28;20968;-70
2023/06/17 05:22:06;;;;;;;12.10;7.70;;;18.50;61.60;;;;;;5095793;28;20491;-70
2023/06/17 05:24:33;;;;;;;12.13;8.83;;;18.60;61.80;;;;;;5096233;28;20486;-71
2023/06/17 05:26:59;;;;;;;9.77;7.40;;;18.60;61.80;;;;;;5096441;28;20440;-71
2023/06/17 05:29:26;;;;;;;12.27;8.17;;;18.70;61.20;;;;;;5094799;28;20796;-71
2023/06/17 05:31:53;;;;;;;8.50;7.70;;;18.90;61.20;;;;;;5095052;28;20471;-71
2023/06/17 05:34:20;;;;;;;11.47;8.07;;;18.90;61.40;;;;;;5096437;28;20443;-72
2023/06/17 05:36:48;;;;;;;13.57;8.33;;;19.00;61.60;;;;;;5095155;28;20479;-72
2023/06/17 05:39:15;;;;;;;9.43;8.27;;;19.10;61.40;;;;;;5094707;28;20956;-72
2023/06/17 05:41:42;;;;;;;15.23;9.03;;;19.20;60.40;;;;;;5097148;28;20458;-72
2023/06/17 05:44:09;;;;;;;9.60;8.57;;;19.30;60.30;;;;;;5099778;28;20459;-71
2023/06/17 05:46:37;;;;;;;11.00;8.90;;;19.30;60.20;;;;;;5099057;28;20450;-71
2023/06/17 05:49:04;;;;;;;11.00;9.03;;;19.50;59.90;;;;;;5097953;28;20451;-71
2023/06/17 05:51:30;;;;;;;9.90;7.70;;;19.60;58.90;;;;;;5097635;28;20483;-72
2023/06/17 05:53:59;;;;;;;8.87;7.87;;;19.70;58.90;;;;;;5098769;28;20493;-71
2023/06/17 05:56:26;;;;;;;13.13;9.17;;;19.80;58.70;;;;;;5098413;28;20479;-72
2023/06/17 05:58:52;;;;;;;7.70;7.00;;;19.90;58.40;;;;;;5097974;28;20459;-72
2023/06/17 06:01:19;;;;;;;9.93;8.30;;;20.00;58.90;;;;;;5096321;28;20936;-72
2023/06/17 06:03:46;;;;;;;8.47;7.67;;;20.10;58.90;;;;;;5097574;28;20464;-72
2023/06/17 06:06:12;;;;;;;7.80;7.00;;;20.30;58.80;;;;;;5097007;28;20834;-72
2023/06/17 06:08:39;;;;;;;8.80;7.90;;;20.40;58.80;;;;;;5097681;28;20452;-71
2023/06/17 06:11:07;;;;;;;12.53;8.53;;;20.50;58.10;;;;;;5106607;28;20444;-72
2023/06/17 06:13:34;;;;;;;9.30;7.17;;;20.70;57.90;;;;;;5104189;28;21000;-72
2023/06/17 06:16:01;;;;;;;8.60;7.80;;;20.80;57.90;;;;;;5097439;28;20451;-72
2023/06/17 06:18:29;;;;;;;7.83;7.10;;;20.90;57.60;;;;;;5095925;28;20479;-72
2023/06/17 06:20:57;;;;;;;7.60;6.77;;;21.10;57.20;;;;;;5096914;28;20466;-71
2023/06/17 06:23:25;;;;;;;9.23;7.87;;;21.30;57.40;;;;;;5097011;28;20463;-71
2023/06/17 06:25:52;;;;;;;7.23;6.53;;;21.40;56.30;;;;;;5096573;28;20454;-71
2023/06/17 06:28:20;;;;;;;7.60;6.83;;;21.50;55.40;;;;;;5096883;28;20467;-72
2023/06/17 06:30:47;;;;;;;10.40;8.27;;;21.70;54.70;;;;;;5099512;28;20446;-71
2023/06/17 06:33:14;;;;;;;9.50;8.60;;;21.80;54.80;;;;;;5109175;28;20471;-71
2023/06/17 06:35:43;;;;;;;8.70;7.57;;;22.00;54.40;;;;;;5102879;28;20443;-72
2023/06/17 06:38:09;;;;;;;7.20;6.60;;;22.10;53.80;;;;;;5100287;28;20612;-72
2023/06/17 06:40:36;;;;;;;6.80;6.10;;;22.20;53.30;;;;;;5099641;28;20805;-72
2023/06/17 06:43:03;;;;;;;7.53;6.60;;;22.40;52.60;;;;;;5097922;28;20468;-71
2023/06/17 06:45:31;;;;;;;6.67;5.30;;;22.60;52.20;;;;;;5096513;28;20948;-71
2023/06/17 06:47:58;;;;;;;5.90;5.03;;;22.70;51.50;;;;;;5096427;28;20440;-72
2023/06/17 06:50:25;;;;;;;8.20;5.70;;;22.90;51.20;;;;;;5096502;28;20452;-71
2023/06/17 06:52:51;;;;;;;4.93;4.43;;;23.10;50.50;;;;;;5095657;28;20460;-66
2023/06/17 06:55:18;;;;;;;6.57;5.00;;;23.30;47.70;;;;;;5095310;28;20448;-66
2023/06/17 06:57:45;;;;;;;5.78;4.95;;;23.60;46.50;;;;;;5095340;28;20441;-65
2023/06/17 07:00:14;;;;;;;6.90;4.80;;;23.80;47.20;;;;;;5094131;28;20201;-65
2023/06/17 07:02:43;;;;;;;5.00;4.50;;;24.10;47.10;;;;;;5094320;28;20476;-66
2023/06/17 07:05:10;;;;;;;5.43;4.17;;;24.30;47.20;;;;;;5095266;28;20521;-67
2023/06/17 07:07:37;;;;;;;8.80;4.80;;;24.60;47.30;;;;;;5095647;28;20543;-67
2023/06/17 07:10:04;;;;;;;4.83;4.37;;;24.80;47.20;;;;;;5098087;28;20444;-67
2023/06/17 07:12:33;;;;;;;5.03;4.63;;;25.00;46.60;;;;;;5095270;28;20464;-67
2023/06/17 07:14:59;;;;;;;8.07;4.70;;;25.20;46.10;;;;;;5095005;28;20967;-67
2023/06/17 07:17:26;;;;;;;4.30;3.90;;;25.40;45.70;;;;;;5095104;28;20491;-67
2023/06/17 07:19:57;;;;;;;5.57;5.07;;;25.50;45.00;;;;;;5095065;28;20459;-67
2023/06/17 07:22:24;;;;;;;5.03;4.57;;;25.70;44.40;;;;;;5094012;28;20509;-67
2023/06/17 07:24:52;;;;;;;7.77;5.33;;;25.90;44.10;;;;;;5095324;28;20487;-67
2023/06/17 07:27:19;;;;;;;6.83;5.33;;;26.10;43.80;;;;;;5095086;28;20451;-67
2023/06/17 07:29:45;;;;;;;6.17;5.37;;;26.20;43.80;;;;;;5095823;28;20439;-67
2023/06/17 07:32:12;;;;;;;6.00;4.23;;;26.30;42.30;;;;;;5097171;28;20989;-67
2023/06/17 07:34:39;;;;;;;7.33;5.17;;;26.40;41.70;;;;;;5096477;28;20451;-67
2023/06/17 07:37:07;;;;;;;8.20;5.17;;;26.50;41.30;;;;;;5093415;28;20471;-67
2023/06/17 07:39:34;;;;;;;8.77;5.40;;;26.70;40.60;;;;;;5094294;28;20447;-70
2023/06/17 07:42:01;;;;;;;6.40;5.37;;;26.80;40.70;;;;;;5094899;28;20544;-67
2023/06/17 07:44:29;;;;;;;6.37;4.40;;;26.90;41.00;;;;;;5094668;28;20459;-67
2023/06/17 07:46:57;;;;;;;9.40;5.03;;;27.00;41.30;;;;;;5093136;28;20432;-73
2023/06/17 07:49:24;;;;;;;10.00;4.60;;;27.10;41.70;;;;;;5094607;28;20814;-69
2023/06/17 07:51:51;;;;;;;6.47;4.67;;;27.30;41.10;;;;;;5094036;28;20468;-72
2023/06/17 07:54:19;;;;;;;6.97;4.90;;;27.50;40.70;;;;;;5093946;28;20447;-73
2023/06/17 07:56:46;;;;;;;7.00;4.20;;;27.70;40.60;;;;;;5094577;28;20448;-72
2023/06/17 07:59:13;;;;;;;4.97;4.03;;;28.00;40.30;;;;;;5094699;28;20806;-72
2023/06/17 08:01:40;;;;;;;6.60;4.57;;;28.20;39.70;;;;;;5094130;28;20793;-73
2023/06/17 08:04:07;;;;;;;6.13;5.30;;;28.50;39.00;;;;;;5092305;28;20512;-73
2023/06/17 08:06:34;;;;;;;8.67;4.30;;;28.80;38.90;;;;;;5094093;28;20514;-72
2023/06/17 08:09:01;;;;;;;5.27;4.40;;;29.00;38.30;;;;;;5094743;28;20885;-71
2023/06/17 08:11:29;;;;;;;5.00;4.60;;;29.20;38.30;;;;;;5094551;28;20444;-72
2023/06/17 08:13:56;;;;;;;6.30;5.20;;;29.40;37.00;;;;;;5094344;28;20450;-70
2023/06/17 08:16:23;;;;;;;8.53;4.40;;;29.60;36.00;;;;;;5093877;28;20452;-70
2023/06/17 08:18:49;;;;;;;5.67;4.53;;;29.80;35.60;;;;;;5093509;28;20479;-70
2023/06/17 08:21:16;;;;;;;6.83;4.37;;;30.10;35.30;;;;;;5093165;28;20444;-70
2023/06/17 08:23:43;;;;;;;5.43;4.33;;;30.20;34.50;;;;;;5093721;28;20528;-72
2023/06/17 08:26:11;;;;;;;5.30;4.80;;;30.50;33.60;;;;;;5093763;28;20454;-70
2023/06/17 08:28:39;;;;;;;5.23;4.17;;;30.60;33.10;;;;;;5093719;28;20444;-70
2023/06/17 08:31:06;;;;;;;5.23;4.47;;;30.90;32.90;;;;;;5093701;28;20993;-71
2023/06/17 08:33:33;;;;;;;7.10;5.00;;;31.10;32.40;;;;;;5092590;28;20971;-70
2023/06/17 08:35:59;;;;;;;4.90;4.50;;;31.30;31.70;;;;;;5093724;28;20440;-71
2023/06/17 08:38:26;;;;;;;5.17;4.67;;;31.40;30.70;;;;;;5093215;28;20995;-71
2023/06/17 08:40:53;;;;;;;4.27;3.97;;;31.60;30.20;;;;;;5092972;28;20447;-70
2023/06/17 08:43:21;;;;;;;4.77;4.47;;;31.80;30.30;;;;;;5093396;28;20470;-71
2023/06/17 08:45:50;;;;;;;4.60;4.30;;;32.00;30.00;;;;;;5093434;28;20454;-71
2023/06/17 08:48:18;;;;;;;5.13;4.37;;;32.20;29.60;;;;;;5093964;28;20492;-70
2023/06/17 08:50:47;;;;;;;4.30;4.00;;;32.40;29.40;;;;;;5096666;28;20455;-71
2023/06/17 08:53:14;;;;;;;4.97;4.37;;;32.60;28.70;;;;;;5110100;28;20459;-70
2023/06/17 08:55:42;;;;;;;4.23;3.83;;;32.70;28.30;;;;;;5096749;28;20447;-71
2023/06/17 08:58:10;;;;;;;6.30;3.90;;;32.90;28.20;;;;;;5096424;28;20550;-70
2023/06/17 09:00:36;;;;;;;5.10;4.37;;;33.00;26.80;;;;;;5095632;28;20485;-70
2023/06/17 09:03:07;;;;;;;4.50;4.10;;;32.90;26.60;;;;;;5094667;28;20494;-70
2023/06/17 09:05:36;;;;;;;4.30;3.90;;;33.00;27.00;;;;;;5093667;28;20455;-70
2023/06/17 09:08:03;;;;;;;7.60;4.60;;;33.10;27.80;;;;;;5094644;28;20447;-70
2023/06/17 09:10:30;;;;;;;5.70;4.67;;;33.30;27.90;;;;;;5094590;28;20455;-70
2023/06/17 09:12:59;;;;;;;6.37;4.40;;;33.50;28.00;;;;;;5095120;28;20459;-67
2023/06/17 09:15:27;;;;;;;5.83;5.20;;;33.70;27.60;;;;;;5094873;28;20473;-68
2023/06/17 09:17:53;;;;;;;5.53;4.53;;;33.90;27.20;;;;;;5096753;28;20557;-68
2023/06/17 09:20:23;;;;;;;5.33;4.83;;;34.10;26.70;;;;;;5097638;28;20450;-68
2023/06/17 09:22:51;;;;;;;5.10;4.60;;;34.30;26.80;;;;;;5097365;28;20463;-68
2023/06/17 09:25:18;;;;;;;5.20;4.80;;;34.50;26.60;;;;;;5097244;28;20450;-68
2023/06/17 09:27:49;;;;;;;5.40;5.00;;;34.70;26.20;;;;;;5097649;28;20447;-69
2023/06/17 09:30:16;;;;;;;5.87;5.27;;;34.90;25.80;;;;;;5100778;28;20427;-68
2023/06/17 09:32:44;;;;;;;5.73;5.20;;;35.00;23.60;;;;;;5097973;28;20467;-69
2023/06/17 09:35:15;;;;;;;5.17;4.77;;;34.90;24.10;;;;;;5096046;28;20537;-69
2023/06/17 09:37:45;;;;;;;5.53;5.03;;;34.90;24.50;;;;;;5096736;28;20925;-69
2023/06/17 09:40:13;;;;;;;5.33;4.83;;;34.90;24.60;;;;;;5096930;28;20453;-68
2023/06/17 09:42:40;;;;;;;4.90;4.50;;;35.00;25.00;;;;;;5097466;28;20511;-68
2023/06/17 09:45:11;;;;;;;5.23;4.80;;;35.10;24.50;;;;;;5096733;28;20438;-68
2023/06/17 09:47:38;;;;;;;5.33;4.93;;;35.30;23.90;;;;;;5096775;28;20466;-69
2023/06/17 09:50:09;;;;;;;5.40;4.90;;;35.40;24.00;;;;;;5095115;28;20959;-68
2023/06/17 09:52:38;;;;;;;5.60;5.20;;;35.50;23.90;;;;;;5095540;28;20507;-68
2023/06/17 09:55:07;;;;;;;8.23;5.10;;;35.70;24.20;;;;;;5096490;28;20482;-68
2023/06/17 09:57:39;;;;;;;5.70;5.20;;;35.90;22.90;;;;;;5096308;28;20455;-68
2023/06/17 10:00:10;;;;;;;7.13;4.87;;;36.20;22.30;;;;;;5096109;28;20649;-68
2023/06/17 10:02:38;;;;;;;9.57;5.30;;;36.50;22.40;;;;;;5094900;28;20228;-69
2023/06/17 10:05:06;;;;;;;8.07;5.27;;;36.60;22.60;;;;;;5097144;28;20228;-68
2023/06/17 10:07:33;;;;;;;5.20;4.70;;;36.70;22.60;;;;;;5097443;28;20205;-68
2023/06/17 10:10:02;;;;;;;5.50;5.20;;;37.00;22.50;;;;;;5095956;28;20670;-69
2023/06/17 10:12:31;;;;;;;4.70;4.40;;;37.20;20.80;;;;;;5096224;28;20597;-69
2023/06/17 10:15:00;;;;;;;5.80;5.30;;;37.40;21.70;;;;;;5096429;28;20209;-69
2023/06/17 10:17:28;;;;;;;4.85;4.55;;;37.70;20.70;;;;;;5095922;28;20291;-69
2023/06/17 10:19:55;;;;;;;5.28;4.78;;;38.00;21.40;;;;;;5096007;28;20296;-69
2023/06/17 10:22:23;;;;;;;6.18;5.60;;;38.40;21.50;;;;;;5100072;28;20736;-70
2023/06/17 10:24:51;;;;;;;5.35;4.53;;;38.80;21.00;;;;;;5102544;28;20209;-69
2023/06/17 10:27:21;;;;;;;5.32;4.82;;;39.10;20.70;;;;;;5097821;28;20669;-69
2023/06/17 10:29:52;;;;;;;5.32;4.93;;;39.40;20.90;;;;;;5097100;28;20181;-69
2023/06/17 10:32:22;;;;;;;5.75;5.05;;;39.70;20.30;;;;;;5099088;28;20225;-69
2023/06/17 10:35:09;;;;;;;6.82;5.55;;;39.90;18.90;;;;;;5097669;28;20684;-69
2023/06/17 10:37:40;;;;;;;5.57;5.07;;;40.10;18.30;;;;;;5095885;28;20208;-68
2023/06/17 10:40:23;;;;;;;5.63;5.13;;;40.40;19.40;;;;;;5095649;28;20710;-69
2023/06/17 10:43:16;;;;;;;5.60;4.90;;;40.70;19.10;;;;;;5096787;28;20227;-69
2023/06/17 10:45:58;;;;;;;5.00;4.60;;;41.10;19.30;;;;;;5096190;28;20192;-69
2023/06/17 10:48:28;;;;;;;6.05;4.55;;;41.50;18.70;;;;;;5096559;28;20192;-70
2023/06/17 10:51:00;;;;;;;5.35;4.50;;;41.90;18.30;;;;;;5096222;28;20205;-69
2023/06/17 10:53:32;;;;;;;5.22;4.85;;;42.40;18.00;;;;;;5096172;28;20220;-70
2023/06/17 10:56:00;;;;;;;5.22;4.72;;;42.90;17.50;;;;;;5094851;28;20194;-70
2023/06/17 10:58:33;;;;;;;5.35;4.70;;;43.40;16.00;;;;;;5095170;28;20620;-70
2023/06/17 11:01:07;;;;;;;5.28;4.78;;;43.90;15.80;;;;;;5093758;28;20280;-71
2023/06/17 11:03:34;;;;;;;4.53;4.15;;;44.30;16.00;;;;;;5093917;28;20310;-71
2023/06/17 11:06:03;;;;;;;5.68;5.18;;;44.80;15.90;;;;;;5095319;28;20204;-71
2023/06/17 11:08:31;;;;;;;4.95;4.55;;;45.30;16.10;;;;;;5094787;28;20221;-70
2023/06/17 11:11:12;;;;;;;6.85;4.63;;;45.50;14.50;;;;;;5104987;28;20227;-70
2023/06/17 11:13:40;;;;;;;5.07;3.72;;;45.80;14.30;;;;;;5100295;28;20360;-70
2023/06/17 11:16:09;;;;;;;4.65;4.35;;;46.20;14.80;;;;;;5100534;28;20209;-71
2023/06/17 11:18:37;;;;;;;6.05;5.15;;;46.40;14.40;;;;;;5097237;28;20217;-70
2023/06/17 11:21:04;;;;;;;5.15;4.75;;;46.10;12.50;;;;;;5095634;28;20204;-70
2023/06/17 11:23:31;;;;;;;5.55;4.70;;;46.00;13.70;;;;;;5095831;28;20252;-71
2023/06/17 11:25:58;;;;;;;8.40;4.57;;;46.20;13.60;;;;;;5095076;28;20212;-71
2023/06/17 11:28:25;;;;;;;5.57;4.30;;;46.40;13.80;;;;;;5094595;28;20701;-71
2023/06/17 11:30:52;;;;;;;6.75;4.63;;;46.60;14.20;;;;;;5094809;28;20205;-71
2023/06/17 11:33:21;;;;;;;4.20;3.83;;;46.80;13.90;;;;;;5094858;28;20216;-71
2023/06/17 11:35:48;;;;;;;5.80;4.13;;;46.90;12.70;;;;;;5094373;28;20205;-70
2023/06/17 11:38:17;;;;;;;4.70;4.30;;;47.20;13.80;;;;;;5094547;28;20236;-71
2023/06/17 11:40:43;;;;;;;4.93;4.53;;;47.50;13.80;;;;;;5094861;28;20237;-70
2023/06/17 11:43:11;;;;;;;3.97;3.67;;;47.90;13.10;;;;;;5094001;28;20588;-71
2023/06/17 11:45:38;;;;;;;4.72;4.32;;;48.30;13.00;;;;;;5094877;28;20209;-70
2023/06/17 11:48:06;;;;;;;4.65;4.22;;;48.60;12.90;;;;;;5098673;28;20209;-71
2023/06/17 11:50:37;;;;;;;3.63;3.40;;;49.00;12.60;;;;;;5094906;28;20283;-70
2023/06/17 11:53:04;;;;;;;4.28;3.50;;;49.30;12.40;;;;;;5094339;28;20231;-70
2023/06/17 11:55:32;;;;;;;4.28;3.88;;;49.50;11.50;;;;;;5093037;28;20204;-71
2023/06/17 11:58:00;;;;;;;3.70;3.40;;;49.60;11.30;;;;;;5094250;28;20244;-72
2023/06/17 12:00:28;;;;;;;3.50;3.20;;;49.70;11.30;;;;;;5092948;28;20596;-71
2023/06/17 12:02:56;;;;;;;3.97;3.67;;;49.90;11.20;;;;;;5094022;28;20255;-72
2023/06/17 12:05:26;;;;;;;4.50;3.58;;;50.00;10.70;;;;;;5093893;28;20201;-71
2023/06/17 12:07:58;;;;;;;3.58;3.28;;;50.00;10.40;;;;;;5094447;28;20204;-71
2023/06/17 12:10:25;;;;;;;3.83;3.53;;;50.10;10.10;;;;;;5094007;28;20185;-71
2023/06/17 12:12:55;;;;;;;4.40;4.10;;;50.10;10.00;;;;;;5094403;28;20221;-71
2023/06/17 12:15:27;;;;;;;4.03;3.65;;;50.10;10.70;;;;;;5093826;28;20186;-71
2023/06/17 12:17:54;;;;;;;3.88;3.58;;;50.20;11.00;;;;;;5093683;28;20211;-71
2023/06/17 12:20:22;;;;;;;3.72;3.40;;;50.40;9.10;;;;;;5093817;28;20200;-71
2023/06/17 12:22:50;;;;;;;3.50;3.20;;;50.50;9.40;;;;;;5092522;28;20220;-72
2023/06/17 12:25:18;;;;;;;3.28;2.90;;;50.70;10.00;;;;;;5092147;28;20693;-71
2023/06/17 12:27:45;;;;;;;3.55;2.92;;;50.80;9.10;;;;;;5093415;28;20692;-71
2023/06/17 12:30:13;;;;;;;5.40;3.15;;;50.90;9.00;;;;;;5092456;28;20224;-72
2023/06/17 12:32:40;;;;;;;2.65;2.50;;;50.90;9.00;;;;;;5093619;28;20221;-71
2023/06/17 12:35:08;;;;;;;3.70;3.40;;;50.80;7.90;;;;;;5093574;28;20201;-71
2023/06/17 12:37:38;;;;;;;3.00;2.80;;;50.60;8.90;;;;;;5093732;28;20197;-71
2023/06/17 12:40:06;;;;;;;2.92;2.72;;;50.70;9.20;;;;;;5094608;28;20194;-70
2023/06/17 12:42:34;;;;;;;3.08;2.80;;;50.80;8.70;;;;;;5093749;28;20585;-71
2023/06/17 12:45:02;;;;;;;3.75;2.70;;;50.50;8.10;;;;;;5094031;28;20201;-71
2023/06/17 12:47:30;;;;;;;3.20;2.90;;;50.30;9.40;;;;;;5093819;28;20201;-71
2023/06/17 12:49:57;;;;;;;2.72;2.53;;;50.30;8.70;;;;;;5094477;28;20260;-71
2023/06/17 12:52:25;;;;;;;6.95;3.08;;;50.30;8.70;;;;;;5098419;28;20303;-71